createdAt,value
2023-05-05T00:00:04.859Z,54.98
2023-05-05T00:01:04.928Z,54.98
2023-05-05T00:02:05.159Z,54.78
2023-05-05T00:03:05.567Z,54.68
2023-05-05T00:04:05.860Z,54.58
2023-05-05T00:05:06.046Z,54.68
2023-05-05T00:06:06.412Z,54.91
2023-05-05T00:07:06.838Z,55.00
2023-05-05T00:08:07.029Z,54.91
2023-05-05T00:09:07.302Z,55.21
2023-05-05T00:10:07.889Z,55.54
2023-05-05T00:11:07.852Z,55.54
2023-05-05T00:12:08.229Z,55.83
2023-05-05T00:13:08.601Z,55.94
2023-05-05T00:14:08.709Z,56.04
2023-05-05T00:15:09.067Z,55.83
2023-05-05T00:16:09.312Z,55.83
2023-05-05T00:17:09.717Z,55.74
2023-05-05T00:18:09.906Z,55.94
2023-05-05T00:19:10.284Z,55.83
2023-05-05T00:20:10.638Z,55.83
2023-05-05T00:21:10.896Z,55.83
2023-05-05T00:22:11.115Z,56.16
2023-05-05T00:23:11.361Z,56.14
2023-05-05T00:24:11.697Z,55.94
2023-05-05T00:25:11.989Z,56.14
2023-05-05T00:26:12.198Z,56.37
2023-05-05T00:27:12.470Z,56.47
2023-05-05T00:28:12.836Z,56.57
2023-05-05T00:29:12.981Z,56.47
2023-05-05T00:30:13.386Z,56.47
2023-05-05T00:31:13.703Z,56.47
2023-05-05T00:32:13.966Z,56.47
2023-05-05T00:33:14.286Z,56.47
2023-05-05T00:34:14.524Z,56.34
2023-05-05T00:35:14.879Z,56.37
2023-05-05T00:36:15.047Z,56.37
2023-05-05T00:37:15.432Z,56.37
2023-05-05T00:38:15.777Z,56.47
2023-05-05T00:39:16.169Z,56.37
2023-05-05T00:40:16.302Z,56.37
2023-05-05T00:41:16.636Z,56.47
2023-05-05T00:42:16.884Z,56.47
2023-05-05T00:43:18.102Z,56.57
2023-05-05T00:44:17.397Z,56.67
2023-05-05T00:45:17.716Z,56.87
2023-05-05T00:46:18.011Z,56.97
2023-05-05T00:47:18.430Z,56.97
2023-05-05T00:48:18.663Z,57.07
2023-05-05T00:49:19.032Z,57.30
2023-05-05T00:50:19.255Z,57.60
2023-05-05T00:51:19.571Z,57.60
2023-05-05T00:52:19.920Z,57.81
2023-05-05T00:53:20.212Z,57.81
2023-05-05T00:54:20.487Z,58.31
2023-05-05T00:55:20.805Z,58.41
2023-05-05T00:56:21.130Z,58.61
2023-05-05T00:57:21.418Z,58.64
2023-05-05T00:58:21.659Z,58.64
2023-05-05T00:59:22.002Z,58.74
2023-05-05T01:00:22.387Z,58.71
2023-05-05T01:01:22.728Z,58.71
2023-05-05T01:02:22.995Z,58.84
2023-05-05T01:03:23.447Z,58.84
2023-05-05T01:04:23.620Z,58.84
2023-05-05T01:05:23.855Z,58.94
2023-05-05T01:06:24.153Z,58.94
2023-05-05T01:07:24.464Z,59.04
2023-05-05T01:08:24.730Z,59.04
2023-05-05T01:09:25.055Z,59.14
2023-05-05T01:10:25.635Z,59.14
2023-05-05T01:11:25.585Z,59.34
2023-05-05T01:12:25.939Z,59.24
2023-05-05T01:13:26.201Z,59.34
2023-05-05T01:14:26.463Z,59.34
2023-05-05T01:15:26.845Z,59.24
2023-05-05T01:16:27.168Z,59.24
2023-05-05T01:17:27.337Z,59.34
2023-05-05T01:18:27.819Z,59.14
2023-05-05T01:19:27.837Z,59.14
2023-05-05T01:20:28.174Z,59.14
2023-05-05T01:21:28.400Z,59.24
2023-05-05T01:22:28.684Z,59.34
2023-05-05T01:23:29.055Z,59.44
2023-05-05T01:24:29.341Z,59.57
2023-05-05T01:25:29.578Z,59.57
2023-05-05T01:26:29.862Z,59.55
2023-05-05T01:27:30.099Z,59.57
2023-05-05T01:28:30.424Z,59.67
2023-05-05T01:29:30.657Z,59.77
2023-05-05T01:30:31.165Z,59.77
2023-05-05T01:31:31.262Z,59.77
2023-05-05T01:32:31.591Z,59.88
2023-05-05T01:33:31.874Z,59.97
2023-05-05T01:34:32.154Z,60.08
2023-05-05T01:35:32.468Z,60.17
2023-05-05T01:36:32.823Z,60.08
2023-05-05T01:37:34.351Z,60.17
2023-05-05T01:38:33.400Z,60.28
2023-05-05T01:39:33.673Z,60.38
2023-05-05T01:40:34.017Z,60.38
2023-05-05T01:41:34.270Z,60.38
2023-05-05T01:42:34.575Z,60.38
2023-05-05T01:43:34.955Z,60.48
2023-05-05T01:44:35.165Z,60.58
2023-05-05T01:45:35.490Z,60.58
2023-05-05T01:46:35.753Z,60.58
2023-05-05T01:47:36.073Z,60.68
2023-05-05T01:48:36.358Z,60.78
2023-05-05T01:49:36.702Z,60.88
2023-05-05T01:50:37.019Z,60.98
2023-05-05T01:51:37.368Z,61.18
2023-05-05T01:52:37.620Z,61.41
2023-05-05T01:53:37.893Z,61.61
2023-05-05T01:54:38.229Z,61.61
2023-05-05T01:55:38.496Z,61.61
2023-05-05T01:56:38.856Z,61.61
2023-05-05T01:57:39.101Z,61.82
2023-05-05T01:58:39.400Z,61.82
2023-05-05T01:59:39.709Z,61.92
2023-05-05T02:00:40.052Z,61.82
2023-05-05T02:01:40.358Z,61.82
2023-05-05T02:02:40.721Z,61.82
2023-05-05T02:03:40.910Z,62.02
2023-05-05T02:04:41.160Z,62.02
2023-05-05T02:05:41.493Z,62.02
2023-05-05T02:06:41.976Z,62.12
2023-05-05T02:07:42.133Z,62.12
2023-05-05T02:08:42.395Z,62.32
2023-05-05T02:09:42.695Z,62.32
2023-05-05T02:10:42.997Z,62.43
2023-05-05T02:11:43.411Z,62.32
2023-05-05T02:12:43.545Z,62.43
2023-05-05T02:13:43.904Z,62.52
2023-05-05T02:14:44.168Z,62.65
2023-05-05T02:15:44.511Z,62.76
2023-05-05T02:16:44.674Z,63.06
2023-05-05T02:17:44.999Z,63.26
2023-05-05T02:18:45.324Z,63.49
2023-05-05T02:19:45.699Z,63.79
2023-05-05T02:20:45.902Z,64.00
2023-05-05T02:21:46.205Z,64.20
2023-05-05T02:22:46.481Z,64.43
2023-05-05T02:23:47.201Z,64.53
2023-05-05T02:24:47.585Z,64.73
2023-05-05T02:25:47.372Z,64.94
2023-05-05T02:26:47.674Z,65.04
2023-05-05T02:27:48.034Z,64.94
2023-05-05T02:28:48.326Z,65.04
2023-05-05T02:29:48.581Z,65.04
2023-05-05T02:30:48.947Z,65.24
2023-05-05T02:31:49.289Z,65.47
2023-05-05T02:32:49.581Z,65.57
2023-05-05T02:33:49.728Z,65.64
2023-05-05T02:34:50.001Z,65.54
2023-05-05T02:35:50.313Z,65.64
2023-05-05T02:36:50.717Z,65.75
2023-05-05T02:37:50.928Z,65.64
2023-05-05T02:38:51.229Z,65.64
2023-05-05T02:39:51.572Z,65.44
2023-05-05T02:40:51.892Z,65.64
2023-05-05T02:41:52.228Z,65.75
2023-05-05T02:42:52.430Z,65.98
2023-05-05T02:43:52.671Z,66.08
2023-05-05T02:44:52.952Z,66.28
2023-05-05T02:45:53.258Z,66.28
2023-05-05T02:46:53.560Z,66.28
2023-05-05T02:47:53.909Z,66.28
2023-05-05T02:48:54.006Z,66.18
2023-05-05T02:49:54.269Z,66.28
2023-05-05T02:50:54.699Z,66.28
2023-05-05T02:51:54.838Z,66.18
2023-05-05T02:52:55.160Z,66.38
2023-05-05T02:53:55.439Z,66.38
2023-05-05T02:54:55.709Z,66.58
2023-05-05T02:55:56.075Z,66.69
2023-05-05T02:56:56.207Z,66.89
2023-05-05T02:57:56.572Z,67.12
2023-05-05T02:58:56.853Z,67.43
2023-05-05T02:59:57.124Z,67.52
2023-05-05T03:00:57.629Z,67.52
2023-05-05T03:01:57.773Z,67.43
2023-05-05T03:02:58.129Z,67.43
2023-05-05T03:03:58.406Z,67.43
2023-05-05T03:04:58.719Z,67.43
2023-05-05T03:05:59.042Z,67.52
2023-05-05T03:06:59.317Z,67.52
2023-05-05T03:07:59.678Z,67.63
2023-05-05T03:08:59.935Z,67.52
2023-05-05T03:10:00.276Z,67.63
2023-05-05T03:11:00.546Z,67.60
2023-05-05T03:12:00.709Z,67.49
2023-05-05T03:13:00.995Z,67.49
2023-05-05T03:14:01.375Z,67.49
2023-05-05T03:15:01.516Z,67.49
2023-05-05T03:16:01.943Z,67.72
2023-05-05T03:17:02.026Z,67.93
2023-05-05T03:18:02.390Z,68.03
2023-05-05T03:19:02.501Z,68.03
2023-05-05T03:20:03.742Z,67.93
2023-05-05T03:21:03.111Z,67.83
2023-05-05T03:22:03.642Z,67.93
2023-05-05T03:23:03.692Z,67.93
2023-05-05T03:24:03.976Z,68.03
2023-05-05T03:25:04.306Z,67.93
2023-05-05T03:26:04.640Z,68.03
2023-05-05T03:27:04.912Z,68.23
2023-05-05T03:28:05.076Z,68.33
2023-05-05T03:29:09.244Z,68.33
2023-05-05T03:30:05.805Z,68.33
2023-05-05T03:31:05.945Z,68.43
2023-05-05T03:32:06.325Z,68.54
2023-05-05T03:33:06.597Z,68.74
2023-05-05T03:34:06.860Z,68.84
2023-05-05T03:35:07.150Z,68.74
2023-05-05T03:36:07.520Z,68.54
2023-05-05T03:37:07.755Z,68.63
2023-05-05T03:38:07.993Z,68.74
2023-05-05T03:39:08.375Z,68.94
2023-05-05T03:40:08.762Z,69.04
2023-05-05T03:41:08.923Z,68.94
2023-05-05T03:42:09.419Z,69.07
2023-05-05T03:43:09.439Z,69.38
2023-05-05T03:44:09.846Z,69.48
2023-05-05T03:45:10.033Z,69.58
2023-05-05T03:46:10.424Z,69.68
2023-05-05T03:47:10.613Z,69.89
2023-05-05T03:48:10.964Z,69.89
2023-05-05T03:49:11.151Z,69.89
2023-05-05T03:50:11.560Z,69.78
2023-05-05T03:51:11.723Z,69.89
2023-05-05T03:52:14.859Z,69.98
2023-05-05T03:53:12.296Z,70.09
2023-05-05T03:54:12.537Z,70.18
2023-05-05T03:55:14.483Z,70.09
2023-05-05T03:56:13.192Z,69.98
2023-05-05T03:57:13.522Z,70.18
2023-05-05T03:58:13.844Z,70.39
2023-05-05T03:59:14.203Z,70.59
2023-05-05T04:00:14.439Z,70.49
2023-05-05T04:01:14.771Z,70.39
2023-05-05T04:02:17.049Z,70.39
2023-05-05T04:03:15.594Z,70.59
2023-05-05T04:04:15.717Z,70.59
2023-05-05T04:05:16.000Z,70.69
2023-05-05T04:06:16.317Z,70.79
2023-05-05T04:07:16.661Z,70.69
2023-05-05T04:08:16.971Z,70.49
2023-05-05T04:09:17.318Z,70.39
2023-05-05T04:10:17.628Z,70.15
2023-05-05T04:11:17.944Z,70.05
2023-05-05T04:12:18.239Z,70.05
2023-05-05T04:13:18.699Z,69.95
2023-05-05T04:14:18.841Z,69.85
2023-05-05T04:15:19.175Z,69.65
2023-05-05T04:16:19.246Z,69.55
2023-05-05T04:17:19.756Z,69.45
2023-05-05T04:18:19.901Z,69.55
2023-05-05T04:19:20.314Z,69.75
2023-05-05T04:20:20.580Z,69.95
2023-05-05T04:21:20.812Z,70.09
2023-05-05T04:22:21.990Z,70.09
2023-05-05T04:23:21.391Z,70.09
2023-05-05T04:24:21.630Z,70.09
2023-05-05T04:25:21.943Z,70.39
2023-05-05T04:26:22.140Z,70.69
2023-05-05T04:27:22.373Z,70.79
2023-05-05T04:28:22.618Z,70.89
2023-05-05T04:29:22.945Z,70.79
2023-05-05T04:30:23.264Z,70.89
2023-05-05T04:31:23.480Z,70.79
2023-05-05T04:32:23.983Z,71.09
2023-05-05T04:33:23.942Z,71.30
2023-05-05T04:34:24.298Z,71.30
2023-05-05T04:35:24.502Z,71.20
2023-05-05T04:36:24.884Z,71.00
2023-05-05T04:37:25.149Z,70.89
2023-05-05T04:38:25.388Z,70.79
2023-05-05T04:39:25.741Z,70.69
2023-05-05T04:40:26.004Z,70.89
2023-05-05T04:41:26.809Z,70.89
2023-05-05T04:42:26.620Z,70.89
2023-05-05T04:43:26.778Z,71.00
2023-05-05T04:44:27.081Z,70.89
2023-05-05T04:45:27.464Z,70.89
2023-05-05T04:46:27.764Z,71.09
2023-05-05T04:47:27.942Z,70.76
2023-05-05T04:48:28.254Z,70.66
2023-05-05T04:49:28.604Z,70.76
2023-05-05T04:50:29.420Z,70.76
2023-05-05T04:51:29.078Z,70.76
2023-05-05T04:52:29.372Z,70.96
2023-05-05T04:53:29.734Z,71.20
2023-05-05T04:54:29.968Z,71.30
2023-05-05T04:55:30.172Z,71.17
2023-05-05T04:56:31.399Z,71.17
2023-05-05T04:57:30.848Z,71.17
2023-05-05T04:58:31.045Z,71.06
2023-05-05T04:59:31.275Z,71.06
2023-05-05T05:00:31.619Z,70.86
2023-05-05T05:01:31.993Z,70.86
2023-05-05T05:02:32.182Z,70.76
2023-05-05T05:03:32.629Z,70.66
2023-05-05T05:04:32.701Z,70.32
2023-05-05T05:05:32.952Z,70.32
2023-05-05T05:06:33.647Z,70.32
2023-05-05T05:07:33.622Z,70.32
2023-05-05T05:08:33.908Z,70.53
2023-05-05T05:09:34.238Z,70.66
2023-05-05T05:10:35.102Z,70.96
2023-05-05T05:11:34.677Z,70.96
2023-05-05T05:12:34.918Z,71.17
2023-05-05T05:13:35.278Z,71.06
2023-05-05T05:14:35.553Z,71.03
2023-05-05T05:15:35.754Z,71.23
2023-05-05T05:16:36.329Z,71.53
2023-05-05T05:17:36.653Z,71.47
2023-05-05T05:18:36.639Z,71.33
2023-05-05T05:19:37.072Z,71.33
2023-05-05T05:20:37.211Z,71.33
2023-05-05T05:21:37.489Z,71.23
2023-05-05T05:22:37.749Z,70.89
2023-05-05T05:23:38.074Z,70.49
2023-05-05T05:24:38.262Z,70.49
2023-05-05T05:25:38.655Z,70.83
2023-05-05T05:26:39.049Z,71.23
2023-05-05T05:27:39.357Z,71.33
2023-05-05T05:28:39.366Z,71.23
2023-05-05T05:29:39.567Z,71.00
2023-05-05T05:30:39.845Z,70.89
2023-05-05T05:31:40.525Z,70.89
2023-05-05T05:32:40.391Z,71.00
2023-05-05T05:33:40.691Z,70.89
2023-05-05T05:34:40.899Z,70.69
2023-05-05T05:35:41.112Z,70.69
2023-05-05T05:36:41.462Z,70.56
2023-05-05T05:37:41.657Z,70.56
2023-05-05T05:38:42.055Z,70.36
2023-05-05T05:39:43.698Z,70.22
2023-05-05T05:40:42.692Z,70.26
2023-05-05T05:41:42.897Z,70.36
2023-05-05T05:42:43.208Z,70.46
2023-05-05T05:43:43.530Z,70.66
2023-05-05T05:44:43.850Z,70.86
2023-05-05T05:45:44.281Z,70.96
2023-05-05T05:46:44.575Z,70.96
2023-05-05T05:47:44.624Z,71.06
2023-05-05T05:48:45.017Z,71.17
2023-05-05T05:49:45.200Z,70.96
2023-05-05T05:50:45.526Z,70.86
2023-05-05T05:51:45.847Z,70.62
2023-05-05T05:52:46.198Z,70.42
2023-05-05T05:53:46.587Z,70.19
2023-05-05T05:54:46.771Z,70.09
2023-05-05T05:55:47.168Z,70.19
2023-05-05T05:56:47.202Z,70.42
2023-05-05T05:57:47.606Z,70.93
2023-05-05T05:58:47.878Z,70.93
2023-05-05T05:59:48.085Z,71.03
2023-05-05T06:00:48.562Z,70.93
2023-05-05T06:01:48.792Z,71.13
2023-05-05T06:02:49.030Z,71.23
2023-05-05T06:03:49.534Z,71.13
2023-05-05T06:04:49.530Z,70.93
2023-05-05T06:05:49.782Z,70.93
2023-05-05T06:06:50.072Z,71.03
2023-05-05T06:07:50.325Z,70.79
2023-05-05T06:08:50.604Z,70.69
2023-05-05T06:09:50.861Z,70.69
2023-05-05T06:10:51.086Z,70.59
2023-05-05T06:11:51.393Z,70.39
2023-05-05T06:12:51.828Z,70.36
2023-05-05T06:13:52.014Z,70.06
2023-05-05T06:14:53.813Z,70.06
2023-05-05T06:15:52.652Z,70.06
2023-05-05T06:16:52.891Z,69.85
2023-05-05T06:17:54.556Z,69.85
2023-05-05T06:18:53.524Z,69.85
2023-05-05T06:19:54.580Z,69.72
2023-05-05T06:20:54.079Z,69.52
2023-05-05T06:21:54.344Z,69.32
2023-05-05T06:22:54.604Z,69.21
2023-05-05T06:23:54.910Z,68.98
2023-05-05T06:24:55.193Z,68.78
2023-05-05T06:25:55.358Z,68.88
2023-05-05T06:26:55.825Z,68.88
2023-05-05T06:27:56.020Z,69.09
2023-05-05T06:28:56.502Z,69.18
2023-05-05T06:29:56.679Z,69.29
2023-05-05T06:30:56.913Z,69.42
2023-05-05T06:31:58.140Z,69.29
2023-05-05T06:32:57.523Z,69.18
2023-05-05T06:33:57.716Z,69.29
2023-05-05T06:34:58.155Z,69.38
2023-05-05T06:35:58.423Z,69.38
2023-05-05T06:36:58.664Z,69.38
2023-05-05T06:37:58.865Z,69.38
2023-05-05T06:38:59.243Z,69.25
2023-05-05T06:39:59.485Z,69.15
2023-05-05T06:40:59.922Z,69.15
2023-05-05T06:42:00.115Z,69.25
2023-05-05T06:43:00.297Z,69.15
2023-05-05T06:44:00.619Z,69.05
2023-05-05T06:45:00.978Z,69.05
2023-05-05T06:46:01.216Z,69.05
2023-05-05T06:47:01.611Z,69.25
2023-05-05T06:48:01.692Z,69.56
2023-05-05T06:49:02.023Z,69.45
2023-05-05T06:50:02.247Z,69.45
2023-05-05T06:51:02.962Z,69.45
2023-05-05T06:52:03.025Z,69.35
2023-05-05T06:53:03.222Z,69.56
2023-05-05T06:54:03.501Z,69.56
2023-05-05T06:55:03.866Z,69.76
2023-05-05T06:56:04.065Z,69.85
2023-05-05T06:57:04.391Z,69.85
2023-05-05T06:58:04.579Z,69.85
2023-05-05T06:59:04.878Z,69.85
2023-05-05T07:00:05.462Z,69.96
2023-05-05T07:01:05.670Z,69.85
2023-05-05T07:02:05.782Z,69.76
2023-05-05T07:03:06.069Z,69.65
2023-05-05T07:04:06.342Z,69.85
2023-05-05T07:05:06.583Z,69.85
2023-05-05T07:06:06.839Z,69.85
2023-05-05T07:07:07.076Z,69.62
2023-05-05T07:08:07.407Z,69.52
2023-05-05T07:09:07.670Z,69.65
2023-05-05T07:10:08.095Z,69.92
2023-05-05T07:11:08.171Z,69.72
2023-05-05T07:12:08.440Z,69.62
2023-05-05T07:13:08.774Z,69.49
2023-05-05T07:14:09.023Z,69.09
2023-05-05T07:15:19.405Z,69.09
2023-05-05T07:16:10.542Z,68.75
2023-05-05T07:17:09.761Z,68.75
2023-05-05T07:18:10.149Z,68.85
2023-05-05T07:19:10.346Z,68.95
2023-05-05T07:20:10.945Z,68.95
2023-05-05T07:21:10.894Z,68.65
2023-05-05T07:22:11.296Z,68.62
2023-05-05T07:23:11.534Z,68.32
2023-05-05T07:24:11.768Z,68.55
2023-05-05T07:25:12.054Z,68.75
2023-05-05T07:26:12.290Z,68.62
2023-05-05T07:27:12.591Z,68.85
2023-05-05T07:28:12.852Z,69.02
2023-05-05T07:29:13.096Z,68.72
2023-05-05T07:30:16.316Z,68.72
2023-05-05T07:31:13.575Z,68.72
2023-05-05T07:32:14.040Z,68.92
2023-05-05T07:33:14.204Z,69.12
2023-05-05T07:34:14.474Z,68.92
2023-05-05T07:35:15.254Z,69.02
2023-05-05T07:36:14.932Z,68.79
2023-05-05T07:37:15.289Z,68.59
2023-05-05T07:38:15.885Z,68.52
2023-05-05T07:39:15.911Z,68.59
2023-05-05T07:40:16.145Z,68.49
2023-05-05T07:41:16.418Z,68.49
2023-05-05T07:42:16.680Z,68.59
2023-05-05T07:43:16.980Z,68.49
2023-05-05T07:44:17.179Z,68.05
2023-05-05T07:45:18.612Z,68.18
2023-05-05T07:46:17.778Z,68.79
2023-05-05T07:47:18.021Z,68.88
2023-05-05T07:48:18.294Z,68.68
2023-05-05T07:49:18.532Z,68.59
2023-05-05T07:50:18.849Z,68.79
2023-05-05T07:51:19.230Z,68.88
2023-05-05T07:52:21.494Z,68.68
2023-05-05T07:53:20.612Z,68.79
2023-05-05T07:54:19.866Z,69.19
2023-05-05T07:55:20.158Z,69.29
2023-05-05T07:56:21.766Z,69.19
2023-05-05T07:57:20.687Z,68.95
2023-05-05T07:58:21.034Z,69.06
2023-05-05T07:59:21.353Z,68.65
2023-05-05T08:00:21.599Z,68.62
2023-05-05T08:01:21.857Z,68.22
2023-05-05T08:02:22.140Z,68.52
2023-05-05T08:03:22.472Z,68.22
2023-05-05T08:04:22.783Z,67.92
2023-05-05T08:05:22.940Z,67.79
2023-05-05T08:06:23.282Z,67.69
2023-05-05T08:07:23.566Z,67.35
2023-05-05T08:08:23.771Z,66.75
2023-05-05T08:09:24.175Z,66.52
2023-05-05T08:10:24.518Z,66.62
2023-05-05T08:11:24.636Z,66.65
2023-05-05T08:12:25.081Z,66.62
2023-05-05T08:13:25.301Z,66.12
2023-05-05T08:14:25.529Z,66.12
2023-05-05T08:15:25.836Z,66.42
2023-05-05T08:16:26.187Z,66.09
2023-05-05T08:17:26.372Z,65.36
2023-05-05T08:18:26.538Z,64.72
2023-05-05T08:19:29.602Z,64.29
2023-05-05T08:20:27.197Z,63.36
2023-05-05T08:21:27.413Z,63.56
2023-05-05T08:22:27.785Z,62.81
2023-05-05T08:23:28.046Z,61.05
2023-05-05T08:24:28.344Z,59.89
2023-05-05T08:25:28.552Z,58.54
2023-05-05T08:26:28.932Z,57.82
2023-05-05T08:27:29.294Z,57.29
2023-05-05T08:28:29.479Z,56.34
2023-05-05T08:29:29.798Z,56.04
2023-05-05T08:30:30.056Z,55.42
2023-05-05T08:31:30.506Z,54.70
2023-05-05T08:32:31.731Z,54.38
2023-05-05T08:33:31.038Z,53.85
2023-05-05T08:34:31.247Z,53.13
2023-05-05T08:35:31.473Z,53.03
2023-05-05T08:36:31.996Z,52.94
2023-05-05T08:37:32.022Z,52.71
2023-05-05T08:38:32.450Z,51.89
2023-05-05T08:39:32.612Z,51.50
2023-05-05T08:40:32.836Z,51.28
2023-05-05T08:41:37.414Z,50.71
2023-05-05T08:42:38.204Z,51.60
2023-05-05T08:43:34.999Z,51.10
2023-05-05T08:44:34.028Z,50.76
2023-05-05T08:45:34.291Z,51.18
2023-05-05T08:46:34.834Z,51.62
2023-05-05T08:47:34.860Z,52.44
2023-05-05T08:48:35.080Z,52.54
2023-05-05T08:49:35.298Z,52.54
2023-05-05T08:50:35.676Z,52.44
2023-05-05T08:51:35.928Z,52.31
2023-05-05T08:52:36.347Z,50.98
2023-05-05T08:53:36.517Z,49.66
2023-05-05T08:54:36.847Z,49.17
2023-05-05T08:55:37.035Z,49.99
2023-05-05T08:56:37.320Z,50.90
2023-05-05T08:57:37.545Z,50.16
2023-05-05T08:58:37.763Z,49.94
2023-05-05T08:59:38.039Z,49.05
2023-05-05T09:00:38.383Z,50.21
2023-05-05T09:01:38.769Z,51.65
2023-05-05T09:02:39.910Z,51.94
2023-05-05T09:03:39.144Z,51.82
2023-05-05T09:04:39.319Z,51.00
2023-05-05T09:05:39.678Z,49.99
2023-05-05T09:06:39.944Z,49.89
2023-05-05T09:07:40.136Z,49.87
2023-05-05T09:08:40.345Z,50.09
2023-05-05T09:09:40.957Z,50.18
2023-05-05T09:10:41.162Z,50.60
2023-05-05T09:11:41.415Z,50.26
2023-05-05T09:12:41.701Z,49.44
2023-05-05T09:13:41.929Z,48.61
2023-05-05T09:14:42.128Z,47.62
2023-05-05T09:15:42.576Z,48.36
2023-05-05T09:16:42.836Z,48.83
2023-05-05T09:17:43.202Z,47.69
2023-05-05T09:18:43.240Z,46.29
2023-05-05T09:19:46.057Z,46.07
2023-05-05T09:20:43.938Z,45.06
2023-05-05T09:21:44.203Z,44.25
2023-05-05T09:22:44.446Z,43.76
2023-05-05T09:23:44.676Z,43.09
2023-05-05T09:24:45.053Z,43.01
2023-05-05T09:25:45.575Z,43.11
2023-05-05T09:26:45.857Z,42.44
2023-05-05T09:27:45.822Z,43.45
2023-05-05T09:28:46.184Z,43.62
2023-05-05T09:29:46.527Z,44.32
2023-05-05T09:30:46.769Z,43.80
2023-05-05T09:31:47.108Z,42.97
2023-05-05T09:32:47.330Z,42.36
2023-05-05T09:33:47.622Z,42.65
2023-05-05T09:34:47.818Z,41.94
2023-05-05T09:35:48.150Z,41.14
2023-05-05T09:36:48.508Z,41.04
2023-05-05T09:37:49.061Z,41.04
2023-05-05T09:38:50.165Z,40.72
2023-05-05T09:39:49.488Z,40.94
2023-05-05T09:40:49.697Z,40.61
2023-05-05T09:41:50.009Z,39.70
2023-05-05T09:42:50.201Z,39.21
2023-05-05T09:43:53.475Z,38.62
2023-05-05T09:44:51.663Z,38.62
2023-05-05T09:45:51.047Z,38.84
2023-05-05T09:46:51.769Z,38.74
2023-05-05T09:47:53.227Z,39.44
2023-05-05T09:48:52.875Z,40.39
2023-05-05T09:49:52.260Z,40.61
2023-05-05T09:50:53.120Z,41.12
2023-05-05T09:51:52.742Z,41.59
2023-05-05T09:52:52.994Z,41.81
2023-05-05T09:53:53.179Z,41.78
2023-05-05T09:54:53.364Z,41.35
2023-05-05T09:56:01.626Z,40.53
2023-05-05T09:56:54.090Z,40.23
2023-05-05T09:57:54.410Z,39.66
2023-05-05T09:58:54.606Z,39.48
2023-05-05T09:59:54.891Z,39.50
2023-05-05T10:00:55.164Z,40.01
2023-05-05T10:01:55.359Z,41.04
2023-05-05T10:02:55.631Z,41.36
2023-05-05T10:03:56.813Z,42.26
2023-05-05T10:04:56.274Z,41.67
2023-05-05T10:05:56.520Z,41.55
2023-05-05T10:06:56.734Z,40.94
2023-05-05T10:07:57.920Z,42.43
2023-05-05T10:08:58.153Z,43.41
2023-05-05T10:09:57.503Z,44.10
2023-05-05T10:10:57.704Z,45.12
2023-05-05T10:11:58.083Z,45.85
2023-05-05T10:12:58.347Z,45.73
2023-05-05T10:13:58.530Z,46.15
2023-05-05T10:14:58.765Z,45.51
2023-05-05T10:15:59.180Z,45.56
2023-05-05T10:16:59.373Z,45.68
2023-05-05T10:18:07.342Z,43.97
2023-05-05T10:19:00.826Z,44.78
2023-05-05T10:20:00.320Z,45.20
2023-05-05T10:21:00.890Z,45.62
2023-05-05T10:22:00.789Z,46.42
2023-05-05T10:23:01.019Z,48.84
2023-05-05T10:24:01.550Z,49.36
2023-05-05T10:25:01.585Z,50.40
2023-05-05T10:26:01.822Z,50.90
2023-05-05T10:27:02.025Z,51.32
2023-05-05T10:28:02.531Z,51.20
2023-05-05T10:29:02.754Z,50.88
2023-05-05T10:30:02.986Z,50.45
2023-05-05T10:31:12.847Z,50.28
2023-05-05T10:32:21.382Z,50.90
2023-05-05T10:33:18.566Z,51.75
2023-05-05T10:34:05.405Z,52.44
2023-05-05T10:35:04.477Z,51.05
2023-05-05T10:36:04.931Z,49.84
2023-05-05T10:37:05.149Z,49.74
2023-05-05T10:38:05.485Z,48.90
2023-05-05T10:39:05.806Z,48.87
2023-05-05T10:40:06.222Z,48.05
2023-05-05T10:41:06.313Z,47.02
2023-05-05T10:42:06.845Z,46.92
2023-05-05T10:43:07.093Z,48.57
2023-05-05T10:44:07.638Z,48.97
2023-05-05T10:45:07.583Z,49.39
2023-05-05T10:46:07.949Z,49.49
2023-05-05T10:47:08.229Z,49.69
2023-05-05T10:48:08.709Z,49.79
2023-05-05T10:50:09.363Z,49.88
2023-05-05T10:51:09.260Z,49.66
2023-05-05T10:52:09.607Z,49.17
2023-05-05T10:53:09.934Z,49.09
2023-05-05T10:54:10.178Z,49.19
2023-05-05T10:55:10.437Z,48.77
2023-05-05T10:56:10.641Z,48.27
2023-05-05T10:57:11.047Z,48.08
2023-05-05T10:58:11.315Z,47.75
2023-05-05T10:59:11.524Z,47.56
2023-05-05T11:00:12.934Z,47.04
2023-05-05T11:01:12.122Z,47.26
2023-05-05T11:02:12.523Z,47.58
2023-05-05T11:03:12.770Z,47.98
2023-05-05T11:04:12.995Z,48.18
2023-05-05T11:05:13.311Z,48.20
2023-05-05T11:06:13.570Z,48.50
2023-05-05T11:07:15.125Z,48.40
2023-05-05T11:08:14.125Z,47.75
2023-05-05T11:09:14.748Z,47.66
2023-05-05T11:10:15.070Z,47.02
2023-05-05T11:11:15.021Z,46.92
2023-05-05T11:12:15.214Z,47.86
2023-05-05T11:13:15.544Z,48.69
2023-05-05T11:14:15.892Z,49.81
2023-05-05T11:15:16.155Z,49.91
2023-05-05T11:16:16.411Z,49.49
2023-05-05T11:17:16.704Z,49.39
2023-05-05T11:18:17.092Z,49.39
2023-05-05T11:19:17.330Z,50.13
2023-05-05T11:20:17.650Z,50.65
2023-05-05T11:21:18.066Z,51.15
2023-05-05T11:22:18.242Z,50.95
2023-05-05T11:23:18.354Z,50.63
2023-05-05T11:24:18.700Z,50.53
2023-05-05T11:25:19.040Z,50.11
2023-05-05T11:26:19.404Z,49.59
2023-05-05T11:27:19.651Z,49.59
2023-05-05T11:28:19.993Z,49.88
2023-05-05T11:29:20.301Z,49.39
2023-05-05T11:30:20.707Z,49.59
2023-05-05T11:31:21.033Z,49.41
2023-05-05T11:32:21.219Z,49.61
2023-05-05T11:33:21.586Z,50.53
2023-05-05T11:34:21.902Z,51.28
2023-05-05T11:35:22.256Z,52.00
2023-05-05T11:36:22.540Z,51.97
2023-05-05T11:37:22.789Z,52.17
2023-05-05T11:38:23.155Z,51.97
2023-05-05T11:39:23.392Z,52.07
2023-05-05T11:40:23.685Z,52.07
2023-05-05T11:41:24.121Z,52.49
2023-05-05T11:42:24.152Z,52.81
2023-05-05T11:43:24.662Z,52.69
2023-05-05T11:44:24.638Z,52.79
2023-05-05T11:45:24.896Z,52.37
2023-05-05T11:46:25.211Z,51.97
2023-05-05T11:47:25.387Z,52.37
2023-05-05T11:48:25.752Z,52.14
2023-05-05T11:49:25.963Z,50.88
2023-05-05T11:50:26.244Z,49.00
2023-05-05T11:51:26.714Z,47.49
2023-05-05T11:52:26.801Z,46.97
2023-05-05T11:53:26.993Z,47.19
2023-05-05T11:54:27.285Z,46.55
2023-05-05T11:55:27.506Z,46.67
2023-05-05T11:56:27.893Z,47.19
2023-05-05T11:57:28.149Z,47.91
2023-05-05T11:58:28.375Z,48.53
2023-05-05T11:59:28.771Z,49.12
2023-05-05T12:00:28.931Z,48.72
2023-05-05T12:01:29.139Z,48.72
2023-05-05T12:02:29.575Z,48.70
2023-05-05T12:03:29.921Z,48.11
2023-05-05T12:04:30.127Z,48.03
2023-05-05T12:05:30.617Z,48.43
2023-05-05T12:06:30.751Z,48.97
2023-05-05T12:07:31.087Z,49.69
2023-05-05T12:08:31.335Z,49.91
2023-05-05T12:09:31.595Z,50.45
2023-05-05T12:10:31.806Z,50.95
2023-05-05T12:11:32.194Z,50.65
2023-05-05T12:12:32.471Z,50.33
2023-05-05T12:13:32.775Z,50.11
2023-05-05T12:14:33.036Z,49.71
2023-05-05T12:15:33.355Z,48.90
2023-05-05T12:16:33.729Z,48.72
2023-05-05T12:17:33.939Z,49.04
2023-05-05T12:18:34.432Z,49.54
2023-05-05T12:19:34.396Z,49.07
2023-05-05T12:20:34.732Z,49.16
2023-05-05T12:21:35.050Z,49.26
2023-05-05T12:22:35.530Z,49.34
2023-05-05T12:23:35.748Z,49.86
2023-05-05T12:24:36.101Z,49.74
2023-05-05T12:25:36.212Z,49.93
2023-05-05T12:26:36.413Z,49.93
2023-05-05T12:27:36.767Z,50.03
2023-05-05T12:28:37.090Z,49.91
2023-05-05T12:29:37.558Z,49.84
2023-05-05T12:30:37.892Z,49.93
2023-05-05T12:31:38.086Z,49.54
2023-05-05T12:32:38.444Z,50.35
2023-05-05T12:33:38.608Z,50.88
2023-05-05T12:34:38.986Z,50.48
2023-05-05T12:35:39.210Z,50.78
2023-05-05T12:36:39.667Z,50.78
2023-05-05T12:37:39.875Z,50.98
2023-05-05T12:38:40.238Z,50.75
2023-05-05T12:39:40.473Z,50.75
2023-05-05T12:40:40.692Z,50.78
2023-05-05T12:41:41.020Z,50.68
2023-05-05T12:42:41.382Z,50.88
2023-05-05T12:43:41.654Z,50.88
2023-05-05T12:44:41.980Z,50.95
2023-05-05T12:45:42.150Z,50.75
2023-05-05T12:46:42.504Z,50.75
2023-05-05T12:47:42.880Z,50.28
2023-05-05T12:48:44.422Z,50.98
2023-05-05T12:49:43.396Z,51.07
2023-05-05T12:50:43.625Z,51.28
2023-05-05T12:51:43.797Z,51.37
2023-05-05T12:52:44.230Z,50.98
2023-05-05T12:53:44.890Z,51.07
2023-05-05T12:54:44.729Z,50.78
2023-05-05T12:55:44.949Z,50.98
2023-05-05T12:56:45.270Z,51.07